AirNav   Everest Fuels
 
 707 users online  

1I1 Marcy Field Airport
Keene, New York, USA

GOING TO KEENE?


FAA INFORMATION EFFECTIVE 07 OCTOBER 2021

Location

FAA Identifier: 1I1
Lat/Long: 44-13-15.0800N 073-47-16.8400W
44-13.251333N 073-47.280667W
44.2208556,-73.7880111
(estimated)
Elevation: 985 ft. / 300.2 m (surveyed)
Variation: 15W (1985)
From city: 2 miles S of KEENE, NY
Time zone: UTC -4 (UTC -5 during Standard Time)
Zip code: 12942

Airport Operations

Airport use: Open to the public
Activation date: 06/1940
Control tower: no
ARTCC: BOSTON CENTER
FSS: BURLINGTON FLIGHT SERVICE STATION
NOTAMs facility: BTV (NOTAM-D service available)
Attendance: UNATNDD
Wind indicator: yes
Segmented circle: no

Airport Communications

CTAF: 122.9
  • 122.9

Nearby radio navigation aids

VOR radial/distance  VOR name  Freq  Var
BTVr263/28.1BURLINGTON VOR/DME117.5015W

Airport Services

Airframe service: NONE
Powerplant service: NONE

Runway Information

Runway 2/20

Dimensions: 2390 x 95 ft. / 728 x 29 m
Surface: turf, in good condition
RUNWAY 2  RUNWAY 20
Traffic pattern: leftleft
Obstructions: 15 ft. road79 ft. trees, 25 ft. from runway, 90 ft. right of centerline

Airport Ownership and Management from official FAA records

Ownership: Publicly-owned
Owner: TOWN OF KEENE
ROUTE 73
KEENE, NY 12942
Phone 518-576-4444
Manager: JOSEPH WILSON
TOWN OF KEENE, ROUTE 73
KEENE, NY 12942-4444
Phone 518-576-4444

Airport Operational Statistics

Aircraft based on the field: 1
Single engine airplanes: 1
    
Aircraft operations: 135/year *
74% local general aviation
15% transient general aviation
11% military
* for 12-month period ending 18 July 2019

Additional Remarks

CLOSES LATE OCTOBER - REOPENS MID MAY.
MAY THROUGH OCTOBER DATES BY NOTAM.
FOR CD CTC BURLINGTON APCH AT 802-657-4401, WHEN APCH CLSD CTC BOSTON ARTCC AT 603-879-6859.
BIRD ACTIVITY NR MOVEMENT AREAS RWY 02/20 MIDFIELD.
RWY 02/20 SOFT DURG RAIN.

Instrument Procedures

There are no published instrument procedures at 1I1.

Some nearby airports with instrument procedures:

KLKP - Lake Placid Airport (8 nm W)
KSLK - Adirondack Regional Airport (20 nm NW)
4B6 - Ticonderoga Municipal Airport (26 nm SE)
KPBG - Plattsburgh International Airport (29 nm NE)
KBTV - Burlington International Airport (31 nm NE)
 
Loc | Ops | Rwys | IFR | FBO | Links
Com | Nav | Svcs | Stats | Notes
Area around 1I1 (Marcy Field Airport)
 
Road maps at: MapQuest Bing Google
 
Aerial photo
WARNING: Photo may not be current or correct
Aerial photo of 1I1 (Marcy Field Airport)
Photo by Luke Wrest
Photo taken 10-Jul-2011
looking west.

Do you have a better or more recent aerial photo of Marcy Field Airport that you would like to share? If so, please send us your photo.

 
Sectional chart

 
Airport distance calculator
Flying to Marcy Field Airport? Find the distance to fly.

From to 1I1

Sunrise and sunset
Times for 24-Oct-2021
 Local
(UTC-4)
 Zulu
(UTC)
Morning civil twilight06:5310:53
Sunrise07:2211:22
Sunset17:5621:56
Evening civil twilight18:2622:26

Current date and time
Zulu (UTC)  24-Oct-2021 04:17:43
Local (UTC-4)  24-Oct-2021 00:17:43
 
METAR
KSLK 
21nm NW 
240351Z AUTO 00000KT 10SM CLR M02/M03 A2998 RMK AO2 SLP170 I1001 T10221028
KPBG 
29nm NE 
240353Z AUTO 28003KT 10SM CLR 04/00 A3001 RMK AO2 SLP165 T00390000
KBTV 
31nm NE 
240354Z 33007KT 10SM FEW110 07/M01 A3001 RMK AO2 SLP166 "LAST" T00671011
TAF
KSLK 
21nm NW 
231732Z 2318/2418 30005KT P6SM BKN030 FM240200 VRB03KT P6SM SCT035 FM241400 24005KT P6SM SCT040
NOTAMs
Click for the latest NOTAMs
NOTAMs are issued by the DoD/FAA and will open in a separate window not controlled by AirNav.

 

 
 

Would you like to see your business listed on this page?

 If your business provides an interesting product or service to pilots, flight crews, aircraft, or users of the Marcy Field Airport, you should consider listing it here.  To start the listing process, click on the button below
 
Add a business
 

Other Pages about Marcy Field Airport

Update a link
 
Copyright © AirNav, LLC. All rights reserved. Privacy Policy  Contact